EmailTwitter


Observations de surface / Québec / CYQB (71714)

Régions: Québec | Canada | États-Unis | Europe | France | UK | Ailleurs
Station
Affichage
Infos & localisation pour CYQB (71714) | Aide pour décoder les METARs

Observations prises le 2017-11-19 à 23H00 UTC à QUEBEC A, QB (CYQB)

Etat du ciel: couvert.

Obstacle(s) à la visibilité: faible neige.

Température: -2.0 Celsius

Point de rosée: -5.0 Celsius

Humidité relative: 80%

Facteur vent: -9.

Facteur vent (rafales): -10.

Vents: Ouest-sud-ouest à 31 km/h ou 17 noeuds.

Rafale du vent: 44 km/h ou 24 noeuds.

Pression au niveau moyen de la mer: 99.32 kilopascals.

Calage altimétrique: 99.25 kilopascals ou 29.31 pouces de mercure.

Visibilité horizontale: 10.00 milles terrestres ou 16.00 kilomètres.

Hauteur du plafond: 1097 mètres ( 3600 pieds ).

Observation METAR:

CYQB 192300Z 25017G24KT 10SM -SN FEW010 BKN036 OVC160 M02/M05 A2931 RMK

SF1SC7AC1 SF TR PRESRR SLP932=